createdAt,value
2023-03-27T00:02:30.471Z,96118.75
2023-03-27T00:04:57.089Z,96119.44
2023-03-27T00:07:25.854Z,96122.84
2023-03-27T00:09:53.467Z,96122.50
2023-03-27T00:12:20.002Z,96132.06
2023-03-27T00:14:49.003Z,96137.44
2023-03-27T00:17:15.570Z,96142.81
2023-03-27T00:19:44.970Z,96142.75
2023-03-27T00:22:11.606Z,96145.44
2023-03-27T00:24:40.648Z,96149.28
2023-03-27T00:27:07.241Z,96157.81
2023-03-27T00:29:34.503Z,96160.44
2023-03-27T00:32:01.037Z,96159.72
2023-03-27T00:34:29.043Z,96157.72
2023-03-27T00:36:56.047Z,96155.03
2023-03-27T00:39:24.911Z,96156.25
2023-03-27T00:41:55.479Z,96160.38
2023-03-27T00:44:25.169Z,96165.38
2023-03-27T00:46:55.233Z,96168.06
2023-03-27T00:49:23.842Z,96165.41
2023-03-27T00:51:53.724Z,96163.50
2023-03-27T00:54:26.697Z,96171.00
2023-03-27T00:57:00.212Z,96172.75
2023-03-27T00:59:31.848Z,96176.94
2023-03-27T01:02:02.262Z,96172.75
2023-03-27T01:04:31.443Z,96170.38
2023-03-27T01:06:58.406Z,96167.28
2023-03-27T01:09:27.156Z,96166.94
2023-03-27T01:12:06.131Z,96163.44
2023-03-27T01:15:07.299Z,96166.19
2023-03-27T01:17:49.358Z,96171.19
2023-03-27T01:20:36.910Z,96162.75
2023-03-27T01:24:00.549Z,96169.66
2023-03-27T01:26:52.666Z,96173.97
2023-03-27T01:29:30.544Z,96174.34
2023-03-27T01:32:06.266Z,96183.16
2023-03-27T01:34:42.701Z,96177.78
2023-03-27T01:37:34.230Z,96183.94
2023-03-27T01:40:12.817Z,96182.41
2023-03-27T01:42:50.921Z,96191.56
2023-03-27T01:45:21.756Z,96193.50
2023-03-27T01:48:06.931Z,96198.88
2023-03-27T01:50:46.754Z,96198.53
2023-03-27T01:53:40.686Z,96202.69
2023-03-27T01:56:26.104Z,96210.75
2023-03-27T01:59:04.057Z,96210.00
2023-03-27T02:01:37.565Z,96209.25
2023-03-27T02:04:13.355Z,96215.78
2023-03-27T02:06:45.290Z,96221.53
2023-03-27T02:09:22.011Z,96215.78
2023-03-27T02:12:16.564Z,96222.28
2023-03-27T02:14:51.408Z,96226.91
2023-03-27T02:17:20.425Z,96220.81
2023-03-27T02:19:54.468Z,96223.44
2023-03-27T02:22:37.590Z,96227.38
2023-03-27T02:25:24.234Z,96222.00
2023-03-27T02:27:59.261Z,96228.53
2023-03-27T02:30:36.804Z,96232.78
2023-03-27T02:33:19.055Z,96234.66
2023-03-27T02:36:11.182Z,96244.28
2023-03-27T02:38:49.613Z,96253.09
2023-03-27T02:41:38.715Z,96256.56
2023-03-27T02:44:29.987Z,96258.88
2023-03-27T02:47:18.562Z,96275.03
2023-03-27T02:50:00.304Z,96276.50
2023-03-27T02:52:31.947Z,96283.47
2023-03-27T02:55:23.952Z,96281.50
2023-03-27T02:58:00.252Z,96289.56
2023-03-27T03:00:33.807Z,96299.94
2023-03-27T03:03:33.654Z,96302.63
2023-03-27T03:06:00.737Z,96316.47
2023-03-27T03:08:30.449Z,96318.44
2023-03-27T03:11:06.088Z,96323.81
2023-03-27T03:13:35.454Z,96317.66
2023-03-27T03:16:02.054Z,96338.44
2023-03-27T03:18:28.597Z,96338.44
2023-03-27T03:20:55.567Z,96345.34
2023-03-27T03:23:23.145Z,96345.72
2023-03-27T03:25:56.700Z,96349.59
2023-03-27T03:28:29.970Z,96349.22
2023-03-27T03:30:59.250Z,96356.50
2023-03-27T03:33:30.071Z,96362.25
2023-03-27T03:36:00.724Z,96364.59
2023-03-27T03:38:29.596Z,96379.63
2023-03-27T03:41:05.435Z,96372.28
2023-03-27T03:43:34.345Z,96375.03
2023-03-27T03:46:04.049Z,96386.94
2023-03-27T03:48:33.058Z,96392.31
2023-03-27T03:50:59.717Z,96392.72
2023-03-27T03:53:26.688Z,96397.69
2023-03-27T03:55:58.519Z,96406.19
2023-03-27T03:58:34.852Z,96405.09
2023-03-27T04:01:04.467Z,96401.25
2023-03-27T04:03:34.114Z,96410.84
2023-03-27T04:06:07.370Z,96404.34
2023-03-27T04:08:37.293Z,96417.00
2023-03-27T04:11:07.069Z,96422.41
2023-03-27T04:13:38.406Z,96426.63
2023-03-27T04:16:08.180Z,96436.59
2023-03-27T04:18:40.748Z,96435.44
2023-03-27T04:21:14.807Z,96439.22
2023-03-27T04:23:46.040Z,96453.03
2023-03-27T04:26:16.073Z,96461.50
2023-03-27T04:28:45.283Z,96467.25
2023-03-27T04:31:14.289Z,96464.16
2023-03-27T04:33:46.701Z,96464.16
2023-03-27T04:36:18.854Z,96473.78
2023-03-27T04:38:48.134Z,96475.38
2023-03-27T04:41:14.906Z,96478.09
2023-03-27T04:43:41.870Z,96493.44
2023-03-27T04:46:11.287Z,96504.97
2023-03-27T04:48:40.200Z,96501.50
2023-03-27T04:53:50.056Z,96514.97
2023-03-27T04:56:17.522Z,96524.94
2023-03-27T04:58:46.897Z,96526.50
2023-03-27T05:01:13.572Z,96534.56
2023-03-27T05:03:40.546Z,96539.53
2023-03-27T05:06:10.213Z,96533.41
2023-03-27T05:08:36.803Z,96543.41
2023-03-27T05:11:05.830Z,96539.97
2023-03-27T05:13:32.367Z,96551.84
2023-03-27T05:16:01.849Z,96548.09
2023-03-27T05:18:30.773Z,96551.94
2023-03-27T05:20:59.219Z,96548.88
2023-03-27T05:23:26.653Z,96561.53
2023-03-27T05:26:01.590Z,96570.00
2023-03-27T05:28:31.455Z,96571.53
2023-03-27T05:30:58.432Z,96581.38
2023-03-27T05:33:25.771Z,96579.81
2023-03-27T05:35:57.575Z,96595.34
2023-03-27T05:38:30.123Z,96588.34
2023-03-27T05:41:04.324Z,96605.25
2023-03-27T05:43:30.876Z,96606.06
2023-03-27T05:45:57.454Z,96612.59
2023-03-27T05:48:24.014Z,96624.16
2023-03-27T05:50:55.854Z,96622.59
2023-03-27T05:53:28.855Z,96636.44
2023-03-27T05:56:02.366Z,96646.41
2023-03-27T05:58:32.216Z,96665.59
2023-03-27T06:01:01.436Z,96658.28
2023-03-27T06:03:31.026Z,96675.94
2023-03-27T06:06:00.345Z,96677.47
2023-03-27T06:08:30.149Z,96685.19
2023-03-27T06:10:57.682Z,96685.94
2023-03-27T06:13:24.526Z,96689.00
2023-03-27T06:15:53.909Z,96694.75
2023-03-27T06:18:20.566Z,96703.25
2023-03-27T06:20:47.147Z,96696.75
2023-03-27T06:23:14.526Z,96704.44
2023-03-27T06:25:44.161Z,96705.56
2023-03-27T06:28:10.940Z,96714.41
2023-03-27T06:30:38.924Z,96714.00
2023-03-27T06:33:07.719Z,96726.22
2023-03-27T06:35:35.580Z,96730.75
2023-03-27T06:38:07.485Z,96740.44
2023-03-27T06:40:36.584Z,96728.53
2023-03-27T06:43:05.856Z,96749.28
2023-03-27T06:45:35.155Z,96747.00
2023-03-27T06:48:18.699Z,96751.63
2023-03-27T06:50:49.770Z,96751.63
2023-03-27T06:53:27.367Z,96763.50
2023-03-27T06:55:57.492Z,96767.75
2023-03-27T06:58:24.401Z,96764.66
2023-03-27T07:00:51.429Z,96769.28
2023-03-27T07:03:20.663Z,96777.31
2023-03-27T07:05:49.966Z,96783.47
2023-03-27T07:08:24.065Z,96793.03
2023-03-27T07:13:27.860Z,96791.38
2023-03-27T07:15:55.021Z,96808.75
2023-03-27T07:18:24.605Z,96817.91
2023-03-27T07:20:51.388Z,96819.75
2023-03-27T07:23:20.489Z,96825.47
2023-03-27T07:25:51.568Z,96839.38
2023-03-27T07:28:21.008Z,96845.25
2023-03-27T07:30:47.627Z,96857.22
2023-03-27T07:33:14.619Z,96871.88
2023-03-27T07:35:48.613Z,96866.13
2023-03-27T07:38:16.754Z,96878.03
2023-03-27T07:40:44.561Z,96890.28
2023-03-27T07:43:11.647Z,96883.34
2023-03-27T07:45:38.390Z,96889.91
2023-03-27T07:48:14.893Z,96902.97
2023-03-27T07:50:44.994Z,96913.72
2023-03-27T07:53:33.756Z,96926.03
2023-03-27T07:56:01.014Z,96925.25
2023-03-27T07:58:27.882Z,96923.75
2023-03-27T08:00:58.196Z,96934.50
2023-03-27T08:03:26.182Z,96941.03
2023-03-27T08:05:54.777Z,96939.84
2023-03-27T08:08:24.019Z,96943.31
2023-03-27T08:10:53.528Z,96943.31
2023-03-27T08:13:20.196Z,96960.66
2023-03-27T08:15:46.727Z,96966.41
2023-03-27T08:18:13.307Z,96962.59
2023-03-27T08:20:42.504Z,96971.78
2023-03-27T08:23:11.522Z,96984.09
2023-03-27T08:25:42.569Z,96981.03
2023-03-27T08:28:12.449Z,96991.03
2023-03-27T08:30:39.081Z,97007.94
2023-03-27T08:33:09.797Z,96996.38
2023-03-27T08:35:37.247Z,97011.00
2023-03-27T08:38:13.841Z,97007.53
2023-03-27T08:40:54.332Z,97011.00
2023-03-27T08:43:27.235Z,97017.94
2023-03-27T08:45:59.845Z,97016.00
2023-03-27T08:48:34.277Z,97026.38
2023-03-27T08:51:06.463Z,97039.06
2023-03-27T08:53:39.983Z,97041.72
2023-03-27T08:56:13.136Z,97037.50
2023-03-27T08:58:40.481Z,97041.72
2023-03-27T09:01:30.368Z,97053.28
2023-03-27T09:04:00.116Z,97043.66
2023-03-27T09:06:30.474Z,97046.34
2023-03-27T09:09:02.637Z,97057.47
2023-03-27T09:11:50.095Z,97063.63
2023-03-27T09:14:36.011Z,97064.78
2023-03-27T09:17:30.980Z,97068.66
2023-03-27T09:20:11.143Z,97072.88
2023-03-27T09:22:44.407Z,97075.59
2023-03-27T09:25:29.033Z,97083.66
2023-03-27T09:27:58.115Z,97079.41
2023-03-27T09:30:27.448Z,97092.13
2023-03-27T09:33:03.574Z,97099.81
2023-03-27T09:35:35.366Z,97105.13
2023-03-27T09:38:10.228Z,97111.34
2023-03-27T09:40:49.108Z,97117.28
2023-03-27T09:43:22.280Z,97113.13
2023-03-27T09:45:57.063Z,97121.56
2023-03-27T09:48:45.122Z,97113.94
2023-03-27T09:51:40.342Z,97126.94
2023-03-27T09:54:08.064Z,97131.22
2023-03-27T09:56:46.448Z,97143.59
2023-03-27T09:59:25.196Z,97147.31
2023-03-27T10:01:55.587Z,97146.19
2023-03-27T10:04:24.656Z,97151.16
2023-03-27T10:07:05.525Z,97163.84
2023-03-27T10:09:37.479Z,97164.59
2023-03-27T10:12:07.466Z,97170.00
2023-03-27T10:14:43.503Z,97174.66
2023-03-27T10:17:43.950Z,97181.97
2023-03-27T10:20:15.887Z,97190.47
2023-03-27T10:22:52.541Z,97196.66
2023-03-27T10:25:46.676Z,97197.47
2023-03-27T10:28:23.659Z,97196.31
2023-03-27T10:31:03.474Z,97188.69
2023-03-27T10:33:31.416Z,97199.81
2023-03-27T10:36:01.257Z,97201.44
2023-03-27T10:38:28.662Z,97201.06
2023-03-27T10:40:58.174Z,97194.22
2023-03-27T10:43:36.709Z,97187.69
2023-03-27T10:46:12.025Z,97195.38
2023-03-27T10:49:06.553Z,97189.59
2023-03-27T10:51:45.379Z,97189.16
2023-03-27T10:54:42.365Z,97203.66
2023-03-27T10:57:17.062Z,97201.75
2023-03-27T10:59:56.044Z,97202.53
2023-03-27T11:02:33.844Z,97207.56
2023-03-27T11:05:14.084Z,97205.31
2023-03-27T11:07:54.144Z,97220.31
2023-03-27T11:10:26.794Z,97213.38
2023-03-27T11:13:01.856Z,97225.31
2023-03-27T11:15:38.285Z,97222.59
2023-03-27T11:18:32.777Z,97218.72
2023-03-27T11:21:07.522Z,97221.06
2023-03-27T11:23:38.630Z,97227.59
2023-03-27T11:26:07.553Z,97228.25
2023-03-27T11:28:48.729Z,97230.13
2023-03-27T11:31:40.566Z,97231.22
2023-03-27T11:34:13.014Z,97229.72
2023-03-27T11:36:53.093Z,97224.44
2023-03-27T11:39:53.211Z,97236.88
2023-03-27T11:42:24.203Z,97233.44
2023-03-27T11:44:55.863Z,97246.97
2023-03-27T11:47:43.823Z,97255.06
2023-03-27T11:50:44.296Z,97263.56
2023-03-27T11:53:28.233Z,97270.13
2023-03-27T11:56:12.335Z,97263.56
2023-03-27T11:59:08.614Z,97265.84
2023-03-27T12:01:42.857Z,97258.13
2023-03-27T12:04:28.316Z,97263.44
2023-03-27T12:07:08.260Z,97261.41
2023-03-27T12:09:52.547Z,97264.41
2023-03-27T12:12:46.590Z,97265.91
2023-03-27T12:15:45.102Z,97271.50
2023-03-27T12:18:17.382Z,97278.94
2023-03-27T12:21:18.373Z,97285.03
2023-03-27T12:24:04.650Z,97272.63
2023-03-27T12:26:43.690Z,97271.72
2023-03-27T12:29:23.731Z,97271.19
2023-03-27T12:31:52.751Z,97275.00
2023-03-27T12:34:50.132Z,97281.63
2023-03-27T12:37:23.285Z,97284.00
2023-03-27T12:39:57.432Z,97292.94
2023-03-27T12:42:44.510Z,97287.19
2023-03-27T12:45:16.801Z,97287.47
2023-03-27T12:48:06.801Z,97290.50
2023-03-27T12:50:58.224Z,97287.97
2023-03-27T12:53:27.986Z,97300.63
2023-03-27T12:56:17.368Z,97296.16
2023-03-27T12:58:46.241Z,97301.19
2023-03-27T13:01:26.911Z,97308.97
2023-03-27T13:04:24.949Z,97316.59
2023-03-27T13:07:23.470Z,97310.28
2023-03-27T13:10:11.590Z,97326.13
2023-03-27T13:12:53.332Z,97324.63
2023-03-27T13:15:29.597Z,97327.09
2023-03-27T13:18:08.057Z,97322.44
2023-03-27T13:20:49.745Z,97330.16
2023-03-27T13:23:37.545Z,97337.06
2023-03-27T13:26:08.581Z,97337.28
2023-03-27T13:28:40.174Z,97333.78
2023-03-27T13:31:11.730Z,97323.28
2023-03-27T13:33:59.455Z,97328.53
2023-03-27T13:36:26.592Z,97335.09
2023-03-27T13:38:56.657Z,97343.91
2023-03-27T13:41:52.416Z,97341.28
2023-03-27T13:44:34.160Z,97347.69
2023-03-27T13:47:09.794Z,97352.13
2023-03-27T13:49:42.711Z,97361.28
2023-03-27T13:52:32.016Z,97360.41
2023-03-27T13:55:19.714Z,97361.53
2023-03-27T13:57:49.081Z,97362.41
2023-03-27T14:00:20.976Z,97358.31
2023-03-27T14:03:11.398Z,97355.00
2023-03-27T14:06:07.210Z,97356.03
2023-03-27T14:09:06.286Z,97350.72
2023-03-27T14:11:38.469Z,97360.28
2023-03-27T14:14:31.113Z,97359.66
2023-03-27T14:17:04.173Z,97363.91
2023-03-27T14:19:37.270Z,97373.22
2023-03-27T14:22:19.991Z,97380.53
2023-03-27T14:25:00.940Z,97377.38
2023-03-27T14:27:32.550Z,97385.47
2023-03-27T14:30:15.687Z,97382.81
2023-03-27T14:32:43.582Z,97387.19
2023-03-27T14:35:46.358Z,97379.50
2023-03-27T14:38:26.194Z,97386.78
2023-03-27T14:40:57.812Z,97385.66
2023-03-27T14:43:27.533Z,97393.03
2023-03-27T14:45:59.948Z,97394.59
2023-03-27T14:48:30.977Z,97388.44
2023-03-27T14:51:04.624Z,97393.09
2023-03-27T14:53:36.522Z,97391.16
2023-03-27T14:56:22.337Z,97394.22
2023-03-27T14:58:53.685Z,97393.06
2023-03-27T15:01:22.814Z,97403.88
2023-03-27T15:03:56.321Z,97391.16
2023-03-27T15:06:26.574Z,97380.72
2023-03-27T15:08:59.658Z,97376.78
2023-03-27T15:11:33.461Z,97375.81
2023-03-27T15:14:04.748Z,97369.19
2023-03-27T15:16:35.671Z,97369.06
2023-03-27T15:19:21.769Z,97376.59
2023-03-27T15:22:01.272Z,97368.22
2023-03-27T15:25:07.008Z,97368.41
2023-03-27T15:27:42.646Z,97370.09
2023-03-27T15:30:21.696Z,97366.38
2023-03-27T15:32:52.415Z,97370.91
2023-03-27T15:35:34.407Z,97378.28
2023-03-27T15:38:02.585Z,97373.63
2023-03-27T15:40:42.549Z,97378.91
2023-03-27T15:43:15.742Z,97380.25
2023-03-27T15:46:17.231Z,97382.31
2023-03-27T15:48:50.885Z,97392.16
2023-03-27T15:51:20.429Z,97399.81
2023-03-27T15:53:56.009Z,97397.19
2023-03-27T15:56:31.196Z,97412.28
2023-03-27T15:59:07.059Z,97414.22
2023-03-27T16:01:52.175Z,97411.13
2023-03-27T16:04:24.136Z,97405.31
2023-03-27T16:07:06.059Z,97406.94
2023-03-27T16:09:49.394Z,97410.78
2023-03-27T16:12:22.427Z,97413.88
2023-03-27T16:14:52.427Z,97414.28
2023-03-27T16:17:25.155Z,97413.50
2023-03-27T16:20:01.471Z,97420.06
2023-03-27T16:22:32.227Z,97421.63
2023-03-27T16:25:00.898Z,97421.22
2023-03-27T16:27:33.975Z,97423.53
2023-03-27T16:30:02.926Z,97428.91
2023-03-27T16:32:29.994Z,97438.19
2023-03-27T16:34:59.040Z,97445.50
2023-03-27T16:37:28.420Z,97448.16
2023-03-27T16:39:55.476Z,97439.31
2023-03-27T16:42:26.045Z,97448.97
2023-03-27T16:44:53.648Z,97452.78
2023-03-27T16:47:23.457Z,97453.56
2023-03-27T16:50:03.470Z,97466.63
2023-03-27T16:52:39.717Z,97458.91
2023-03-27T16:55:07.721Z,97456.19
2023-03-27T16:57:37.985Z,97451.22
2023-03-27T17:00:11.028Z,97460.06
2023-03-27T17:02:41.754Z,97465.03
2023-03-27T17:05:11.574Z,97458.88
2023-03-27T17:07:38.697Z,97466.16
2023-03-27T17:10:05.963Z,97465.75
2023-03-27T17:12:35.013Z,97475.78
2023-03-27T17:15:01.550Z,97471.84
2023-03-27T17:17:30.307Z,97479.63
2023-03-27T17:19:57.042Z,97478.44
2023-03-27T17:22:23.611Z,97479.19
2023-03-27T17:24:57.016Z,97473.81
2023-03-27T17:27:26.543Z,97475.78
2023-03-27T17:29:56.332Z,97481.16
2023-03-27T17:32:27.009Z,97489.59
2023-03-27T17:34:54.268Z,97486.13
2023-03-27T17:37:23.990Z,97489.16
2023-03-27T17:39:50.879Z,97501.78
2023-03-27T17:42:20.922Z,97510.63
2023-03-27T17:44:50.002Z,97514.34
2023-03-27T17:47:16.662Z,97516.59
2023-03-27T17:49:45.618Z,97520.44
2023-03-27T17:52:13.418Z,97540.06
2023-03-27T17:54:40.396Z,97540.38
2023-03-27T17:57:07.170Z,97552.53
2023-03-27T17:59:33.801Z,97563.66
2023-03-27T18:02:00.512Z,97552.75
2023-03-27T18:04:27.455Z,97551.56
2023-03-27T18:06:54.089Z,97564.41
2023-03-27T18:09:20.921Z,97555.69
2023-03-27T18:11:47.651Z,97569.19
2023-03-27T18:14:14.245Z,97570.47
2023-03-27T18:16:40.912Z,97568.09
2023-03-27T18:19:10.226Z,97578.34
2023-03-27T18:21:36.802Z,97582.25
2023-03-27T18:24:06.556Z,97594.66
2023-03-27T18:26:35.575Z,97602.75
2023-03-27T18:29:02.295Z,97600.06
2023-03-27T18:31:29.404Z,97599.69
2023-03-27T18:34:01.155Z,97616.19
2023-03-27T18:36:27.699Z,97617.84
2023-03-27T18:38:56.473Z,97629.38
2023-03-27T18:41:23.035Z,97632.63
2023-03-27T18:43:54.487Z,97641.78
2023-03-27T18:46:21.130Z,97645.16
2023-03-27T18:48:49.938Z,97644.47
2023-03-27T18:51:18.720Z,97649.66
2023-03-27T18:53:52.137Z,97654.25
2023-03-27T18:56:18.753Z,97654.09
2023-03-27T18:58:48.332Z,97652.47
2023-03-27T19:01:14.988Z,97658.16
2023-03-27T19:03:42.284Z,97667.09
2023-03-27T19:06:11.765Z,97659.97
2023-03-27T19:08:42.188Z,97662.06
2023-03-27T19:11:10.416Z,97670.00
2023-03-27T19:13:39.493Z,97670.69
2023-03-27T19:16:14.521Z,97679.22
2023-03-27T19:18:42.121Z,97686.50
2023-03-27T19:21:08.913Z,97683.25
2023-03-27T19:23:35.636Z,97688.34
2023-03-27T19:26:09.530Z,97680.34
2023-03-27T19:28:37.171Z,97679.19
2023-03-27T19:31:07.421Z,97675.88
2023-03-27T19:33:39.408Z,97683.19
2023-03-27T19:36:08.968Z,97679.56
2023-03-27T19:38:38.534Z,97684.28
2023-03-27T19:41:08.838Z,97672.84
2023-03-27T19:43:35.530Z,97674.16
2023-03-27T19:46:14.844Z,97668.56
2023-03-27T19:48:53.076Z,97674.91
2023-03-27T19:51:22.882Z,97675.28
2023-03-27T19:53:49.505Z,97687.69
2023-03-27T19:56:18.662Z,97685.78
2023-03-27T19:58:45.427Z,97685.28
2023-03-27T20:01:11.996Z,97687.56
2023-03-27T20:03:39.954Z,97693.94
2023-03-27T20:06:18.054Z,97693.38
2023-03-27T20:08:47.788Z,97690.78
2023-03-27T20:11:14.408Z,97691.47
2023-03-27T20:13:53.171Z,97696.75
2023-03-27T20:16:24.294Z,97699.84
2023-03-27T20:19:17.090Z,97698.50
2023-03-27T20:21:48.908Z,97703.94
2023-03-27T20:24:18.727Z,97717.69
2023-03-27T20:26:53.206Z,97713.38
2023-03-27T20:29:24.362Z,97717.44
2023-03-27T20:31:51.200Z,97716.16
2023-03-27T20:34:24.254Z,97720.38
2023-03-27T20:36:58.995Z,97718.91
2023-03-27T20:39:27.857Z,97729.00
2023-03-27T20:41:58.829Z,97722.28
2023-03-27T20:44:35.047Z,97723.41
2023-03-27T20:47:10.883Z,97718.81
2023-03-27T20:49:42.891Z,97726.41
2023-03-27T20:52:11.733Z,97725.72
2023-03-27T20:54:38.724Z,97730.66
2023-03-27T20:57:05.915Z,97732.31
2023-03-27T20:59:34.779Z,97736.09
2023-03-27T21:02:01.677Z,97740.84
2023-03-27T21:04:31.719Z,97740.84
2023-03-27T21:06:59.189Z,97744.31
2023-03-27T21:09:27.558Z,97742.66
2023-03-27T21:11:57.182Z,97741.19
2023-03-27T21:14:26.142Z,97744.22
2023-03-27T21:16:55.565Z,97744.94
2023-03-27T21:19:22.212Z,97740.34
2023-03-27T21:21:51.823Z,97744.84
2023-03-27T21:24:23.221Z,97739.38
2023-03-27T21:26:49.775Z,97744.84
2023-03-27T21:29:20.912Z,97742.50
2023-03-27T21:31:47.541Z,97745.63
2023-03-27T21:34:19.109Z,97745.63
2023-03-27T21:36:45.734Z,97742.16
2023-03-27T21:39:14.646Z,97746.25
2023-03-27T21:41:41.219Z,97745.53
2023-03-27T21:44:07.757Z,97751.16
2023-03-27T21:46:36.771Z,97752.53
2023-03-27T21:49:05.839Z,97742.94
2023-03-27T21:51:34.918Z,97747.19
2023-03-27T21:54:03.880Z,97753.31
2023-03-27T21:56:35.238Z,97751.69
2023-03-27T21:59:04.335Z,97745.22
2023-03-27T22:01:30.922Z,97758.16
2023-03-27T22:04:02.351Z,97758.94
2023-03-27T22:06:29.223Z,97759.47
2023-03-27T22:08:56.171Z,97761.09
2023-03-27T22:11:25.298Z,97763.09
2023-03-27T22:13:54.867Z,97773.72
2023-03-27T22:16:24.925Z,97773.72
2023-03-27T22:18:51.559Z,97779.94
2023-03-27T22:21:31.291Z,97776.38
2023-03-27T22:24:01.683Z,97781.75
2023-03-27T22:26:37.544Z,97782.19
2023-03-27T22:29:09.111Z,97778.72
2023-03-27T22:31:39.226Z,97785.75
2023-03-27T22:34:05.977Z,97788.16
2023-03-27T22:36:35.257Z,97793.06
2023-03-27T22:39:06.530Z,97793.59
2023-03-27T22:41:33.131Z,97796.38
2023-03-27T22:44:01.220Z,97794.81
2023-03-27T22:46:28.354Z,97799.06
2023-03-27T22:48:56.398Z,97805.19
2023-03-27T22:51:23.721Z,97802.25
2023-03-27T22:53:52.724Z,97808.81
2023-03-27T22:56:21.852Z,97810.38
2023-03-27T22:58:48.660Z,97798.53
2023-03-27T23:01:17.550Z,97811.25
2023-03-27T23:03:44.266Z,97812.47
2023-03-27T23:06:22.742Z,97808.72
2023-03-27T23:08:52.483Z,97813.31
2023-03-27T23:11:19.897Z,97809.94
2023-03-27T23:13:49.254Z,97812.69
2023-03-27T23:16:18.997Z,97817.28
2023-03-27T23:18:45.641Z,97821.78
2023-03-27T23:21:16.815Z,97825.72
2023-03-27T23:23:46.710Z,97822.97
2023-03-27T23:26:13.682Z,97832.75
2023-03-27T23:28:46.046Z,97832.22
2023-03-27T23:31:13.899Z,97835.78
2023-03-27T23:33:47.937Z,97831.91
2023-03-27T23:36:24.792Z,97833.78
2023-03-27T23:38:56.607Z,97834.84
2023-03-27T23:41:25.769Z,97836.41
2023-03-27T23:43:53.924Z,97838.38
2023-03-27T23:46:20.875Z,97840.72
2023-03-27T23:48:49.935Z,97844.00
2023-03-27T23:51:17.086Z,97843.97
2023-03-27T23:53:46.144Z,97846.31
2023-03-27T23:56:12.730Z,97855.13
2023-03-27T23:58:41.540Z,97848.72
